METAR Data
IDs: Format: Raw Decoded Include TAF

Data at: 0204 UTC 01 Mar 2021

EICK 010200Z 08009KT 9999 FEW018 04/02 Q1030 NOSIG